sensor_id;sensor_type;location;lat;lon;timestamp;pressure;altitude;pressure_sealevel;temperature;humidity
56658;BME280;42530;52.240;19.354;2022-08-14T00:00:50;53119.44;;;-144.69;62.06
56658;BME280;42530;52.240;19.354;2022-08-14T00:03:27;53121.53;;;-144.69;62.23
56658;BME280;42530;52.240;19.354;2022-08-14T00:05:55;53102.81;;;-144.69;62.34
56658;BME280;42530;52.240;19.354;2022-08-14T00:08:21;53111.13;;;-144.69;62.43
56658;BME280;42530;52.240;19.354;2022-08-14T00:10:47;53115.28;;;-144.69;62.52
56658;BME280;42530;52.240;19.354;2022-08-14T00:13:13;53094.47;;;-144.69;62.60
56658;BME280;42530;52.240;19.354;2022-08-14T00:15:42;53092.41;;;-144.69;62.63
56658;BME280;42530;52.240;19.354;2022-08-14T00:18:17;53111.13;;;-144.69;62.62
56658;BME280;42530;52.240;19.354;2022-08-14T00:20:43;53144.41;;;-144.69;62.66
56658;BME280;42530;52.240;19.354;2022-08-14T00:23:11;53121.53;;;-144.69;62.73
56658;BME280;42530;52.240;19.354;2022-08-14T00:25:37;53125.69;;;-144.69;62.80
56658;BME280;42530;52.240;19.354;2022-08-14T00:28:04;53098.66;;;-144.69;62.57
56658;BME280;42530;52.240;19.354;2022-08-14T00:30:31;53106.97;;;-144.69;62.92
56658;BME280;42530;52.240;19.354;2022-08-14T00:32:57;53117.38;;;-144.69;62.82
56658;BME280;42530;52.240;19.354;2022-08-14T00:35:23;53106.97;;;-144.69;62.74
56658;BME280;42530;52.240;19.354;2022-08-14T00:37:48;53111.13;;;-144.69;62.43
56658;BME280;42530;52.240;19.354;2022-08-14T00:40:16;53086.16;;;-144.69;62.50
56658;BME280;42530;52.240;19.354;2022-08-14T00:42:42;53127.78;;;-144.69;62.55
56658;BME280;42530;52.240;19.354;2022-08-14T00:45:10;53127.78;;;-144.69;62.37
56658;BME280;42530;52.240;19.354;2022-08-14T00:47:36;53127.78;;;-144.69;62.32
56658;BME280;42530;52.240;19.354;2022-08-14T00:50:05;53131.94;;;-144.69;62.42
56658;BME280;42530;52.240;19.354;2022-08-14T00:52:32;53144.41;;;-144.69;62.48
56658;BME280;42530;52.240;19.354;2022-08-14T00:54:57;53102.81;;;-144.69;62.36
56658;BME280;42530;52.240;19.354;2022-08-14T00:57:26;53102.81;;;-144.69;62.58
56658;BME280;42530;52.240;19.354;2022-08-14T00:59:52;53100.72;;;-144.69;62.66
56658;BME280;42530;52.240;19.354;2022-08-14T01:02:19;53104.88;;;-144.69;62.68
56658;BME280;42530;52.240;19.354;2022-08-14T01:04:51;53125.69;;;-144.69;62.50
56658;BME280;42530;52.240;19.354;2022-08-14T01:07:18;53104.88;;;-144.69;62.36
56658;BME280;42530;52.240;19.354;2022-08-14T01:09:54;53152.75;;;-144.69;62.15
56658;BME280;42530;52.240;19.354;2022-08-14T01:12:21;53156.91;;;-144.69;61.90
56658;BME280;42530;52.240;19.354;2022-08-14T01:14:46;53154.81;;;-144.69;61.58
56658;BME280;42530;52.240;19.354;2022-08-14T01:17:17;53111.13;;;-144.69;61.35
56658;BME280;42530;52.240;19.354;2022-08-14T01:19:43;53140.25;;;-144.69;60.94
56658;BME280;42530;52.240;19.354;2022-08-14T01:22:28;53144.41;;;-144.69;60.58
56658;BME280;42530;52.240;19.354;2022-08-14T01:24:53;53106.97;;;-144.69;60.34
56658;BME280;42530;52.240;19.354;2022-08-14T01:27:21;53142.34;;;-144.69;60.59
56658;BME280;42530;52.240;19.354;2022-08-14T01:29:50;53136.09;;;-144.69;60.34
56658;BME280;42530;52.240;19.354;2022-08-14T01:32:19;53125.69;;;-144.69;60.07
56658;BME280;42530;52.240;19.354;2022-08-14T01:34:50;53127.78;;;-144.69;60.16
56658;BME280;42530;52.240;19.354;2022-08-14T01:37:18;53094.47;;;-144.69;60.12
56658;BME280;42530;52.240;19.354;2022-08-14T01:39:47;53119.44;;;-144.69;60.10
56658;BME280;42530;52.240;19.354;2022-08-14T01:42:13;53119.44;;;-144.69;59.76
56658;BME280;42530;52.240;19.354;2022-08-14T01:44:38;53090.31;;;-144.69;59.97
56658;BME280;42530;52.240;19.354;2022-08-14T01:47:06;53134.00;;;-144.69;59.71
56658;BME280;42530;52.240;19.354;2022-08-14T01:49:36;53156.91;;;-144.69;59.74
56658;BME280;42530;52.240;19.354;2022-08-14T01:52:02;53111.13;;;-144.69;59.67
56658;BME280;42530;52.240;19.354;2022-08-14T01:54:28;53127.78;;;-144.69;59.51
56658;BME280;42530;52.240;19.354;2022-08-14T01:56:56;53111.13;;;-144.69;59.46
56658;BME280;42530;52.240;19.354;2022-08-14T01:59:24;53106.97;;;-144.69;59.12
56658;BME280;42530;52.240;19.354;2022-08-14T02:01:54;53144.41;;;-144.69;59.34
56658;BME280;42530;52.240;19.354;2022-08-14T02:04:22;53113.22;;;-144.69;59.28
56658;BME280;42530;52.240;19.354;2022-08-14T02:06:49;53136.09;;;-144.69;59.39
56658;BME280;42530;52.240;19.354;2022-08-14T02:09:16;53123.63;;;-144.69;59.21
56658;BME280;42530;52.240;19.354;2022-08-14T02:11:42;53129.84;;;-144.69;59.37
56658;BME280;42530;52.240;19.354;2022-08-14T02:14:10;53144.41;;;-144.69;59.15
56658;BME280;42530;52.240;19.354;2022-08-14T02:16:38;53106.97;;;-144.69;59.26
56658;BME280;42530;52.240;19.354;2022-08-14T02:19:07;53142.34;;;-144.69;59.36
56658;BME280;42530;52.240;19.354;2022-08-14T02:21:34;53123.63;;;-144.69;58.97
56658;BME280;42530;52.240;19.354;2022-08-14T02:24:01;53134.00;;;-144.69;58.96
56658;BME280;42530;52.240;19.354;2022-08-14T02:26:31;53102.81;;;-144.69;58.92
56658;BME280;42530;52.240;19.354;2022-08-14T02:29:04;53131.94;;;-144.69;58.92
56658;BME280;42530;52.240;19.354;2022-08-14T02:31:32;53161.06;;;-144.69;58.78
56658;BME280;42530;52.240;19.354;2022-08-14T02:33:59;53111.13;;;-144.69;58.77
56658;BME280;42530;52.240;19.354;2022-08-14T02:36:27;53109.06;;;-144.69;58.94
56658;BME280;42530;52.240;19.354;2022-08-14T02:38:52;53082.00;;;-144.69;58.83
56658;BME280;42530;52.240;19.354;2022-08-14T02:41:18;53136.09;;;-144.69;58.76
56658;BME280;42530;52.240;19.354;2022-08-14T02:43:44;53119.44;;;-144.69;58.92
56658;BME280;42530;52.240;19.354;2022-08-14T02:46:10;53131.94;;;-144.69;58.74
56658;BME280;42530;52.240;19.354;2022-08-14T02:48:44;53148.56;;;-144.69;58.76
56658;BME280;42530;52.240;19.354;2022-08-14T02:51:13;53129.84;;;-144.69;58.83
56658;BME280;42530;52.240;19.354;2022-08-14T02:53:41;53111.13;;;-144.69;59.03
56658;BME280;42530;52.240;19.354;2022-08-14T02:56:09;53077.84;;;-144.69;59.00
56658;BME280;42530;52.240;19.354;2022-08-14T02:58:37;53109.06;;;-144.69;59.15
56658;BME280;42530;52.240;19.354;2022-08-14T03:01:05;53165.22;;;-144.69;59.32
56658;BME280;42530;52.240;19.354;2022-08-14T03:03:31;53127.78;;;-144.69;59.17
56658;BME280;42530;52.240;19.354;2022-08-14T03:05:57;53119.44;;;-144.69;59.16
56658;BME280;42530;52.240;19.354;2022-08-14T03:08:22;53119.44;;;-144.69;59.31
56658;BME280;42530;52.240;19.354;2022-08-14T03:10:56;53136.09;;;-144.69;59.30
56658;BME280;42530;52.240;19.354;2022-08-14T03:13:22;53123.63;;;-144.69;59.35
56658;BME280;42530;52.240;19.354;2022-08-14T03:15:50;53129.84;;;-144.69;58.96
56658;BME280;42530;52.240;19.354;2022-08-14T03:18:18;53106.97;;;-144.69;58.85
56658;BME280;42530;52.240;19.354;2022-08-14T03:20:46;53144.41;;;-144.69;59.09
56658;BME280;42530;52.240;19.354;2022-08-14T03:23:11;53169.38;;;-144.69;59.25
56658;BME280;42530;52.240;19.354;2022-08-14T03:25:39;53096.56;;;-144.69;59.13
56658;BME280;42530;52.240;19.354;2022-08-14T03:28:06;53140.25;;;-144.69;58.85
56658;BME280;42530;52.240;19.354;2022-08-14T03:30:32;53127.78;;;-144.69;59.22
56658;BME280;42530;52.240;19.354;2022-08-14T03:32:58;53150.66;;;-144.69;59.40
56658;BME280;42530;52.240;19.354;2022-08-14T03:35:25;53140.25;;;-144.69;59.98
56658;BME280;42530;52.240;19.354;2022-08-14T03:37:51;53131.94;;;-144.69;59.86
56658;BME280;42530;52.240;19.354;2022-08-14T03:40:21;53102.81;;;-144.69;60.02
56658;BME280;42530;52.240;19.354;2022-08-14T03:42:50;53106.97;;;-144.69;59.82
56658;BME280;42530;52.240;19.354;2022-08-14T03:45:15;53136.09;;;-144.69;59.24
56658;BME280;42530;52.240;19.354;2022-08-14T03:47:41;53152.75;;;-144.69;59.09
56658;BME280;42530;52.240;19.354;2022-08-14T03:50:08;53150.66;;;-144.69;59.18
56658;BME280;42530;52.240;19.354;2022-08-14T03:52:36;53136.09;;;-144.69;59.19
56658;BME280;42530;52.240;19.354;2022-08-14T03:55:04;53154.81;;;-144.69;59.12
56658;BME280;42530;52.240;19.354;2022-08-14T03:57:32;53144.41;;;-144.69;58.85
56658;BME280;42530;52.240;19.354;2022-08-14T03:59:58;53119.44;;;-144.69;58.59
56658;BME280;42530;52.240;19.354;2022-08-14T04:02:27;53144.41;;;-144.69;58.50
56658;BME280;42530;52.240;19.354;2022-08-14T04:04:52;53154.81;;;-144.69;57.96
56658;BME280;42530;52.240;19.354;2022-08-14T04:07:18;53109.06;;;-144.69;58.09
56658;BME280;42530;52.240;19.354;2022-08-14T04:09:43;53142.34;;;-144.69;57.96
56658;BME280;42530;52.240;19.354;2022-08-14T04:12:08;53115.28;;;-144.69;57.99
56658;BME280;42530;52.240;19.354;2022-08-14T04:14:34;53121.53;;;-144.69;57.87
56658;BME280;42530;52.240;19.354;2022-08-14T04:17:00;53136.09;;;-144.69;58.11
56658;BME280;42530;52.240;19.354;2022-08-14T04:19:25;53127.78;;;-144.69;58.48
56658;BME280;42530;52.240;19.354;2022-08-14T04:21:51;53131.94;;;-144.69;58.47
56658;BME280;42530;52.240;19.354;2022-08-14T04:24:17;53115.28;;;-144.69;58.42
56658;BME280;42530;52.240;19.354;2022-08-14T04:26:43;53119.44;;;-144.69;58.41
56658;BME280;42530;52.240;19.354;2022-08-14T04:29:11;53094.47;;;-144.69;58.82
56658;BME280;42530;52.240;19.354;2022-08-14T04:31:38;53121.53;;;-144.69;59.14
56658;BME280;42530;52.240;19.354;2022-08-14T04:34:04;53119.44;;;-144.69;59.39
56658;BME280;42530;52.240;19.354;2022-08-14T04:36:31;53115.28;;;-144.69;59.55
56658;BME280;42530;52.240;19.354;2022-08-14T04:38:57;53154.81;;;-144.69;59.19
56658;BME280;42530;52.240;19.354;2022-08-14T04:41:41;53136.09;;;-144.69;59.37
56658;BME280;42530;52.240;19.354;2022-08-14T04:44:25;53119.44;;;-144.69;59.43
56658;BME280;42530;52.240;19.354;2022-08-14T04:46:50;53161.06;;;-144.69;59.10
56658;BME280;42530;52.240;19.354;2022-08-14T04:49:34;53117.38;;;-144.69;59.15
56658;BME280;42530;52.240;19.354;2022-08-14T04:52:00;53150.66;;;-144.69;58.59
56658;BME280;42530;52.240;19.354;2022-08-14T04:54:28;53129.84;;;-144.69;58.37
56658;BME280;42530;52.240;19.354;2022-08-14T04:56:54;53140.25;;;-144.69;58.43
56658;BME280;42530;52.240;19.354;2022-08-14T04:59:21;53111.13;;;-144.69;58.53
56658;BME280;42530;52.240;19.354;2022-08-14T05:01:46;53144.41;;;-144.69;58.58
56658;BME280;42530;52.240;19.354;2022-08-14T05:04:12;53131.94;;;-144.69;58.60
56658;BME280;42530;52.240;19.354;2022-08-14T05:06:38;53144.41;;;-144.69;58.52
56658;BME280;42530;52.240;19.354;2022-08-14T05:09:05;53144.41;;;-144.69;57.77
56658;BME280;42530;52.240;19.354;2022-08-14T05:11:30;53186.03;;;-144.69;57.75
56658;BME280;42530;52.240;19.354;2022-08-14T05:14:01;53134.00;;;-144.69;57.58
56658;BME280;42530;52.240;19.354;2022-08-14T05:16:27;53158.97;;;-144.69;57.51
56658;BME280;42530;52.240;19.354;2022-08-14T05:18:55;53115.28;;;-144.69;57.52
56658;BME280;42530;52.240;19.354;2022-08-14T05:21:20;53148.56;;;-144.69;57.41
56658;BME280;42530;52.240;19.354;2022-08-14T05:23:47;53142.34;;;-144.69;57.21
56658;BME280;42530;52.240;19.354;2022-08-14T05:26:12;53117.38;;;-144.69;57.26
56658;BME280;42530;52.240;19.354;2022-08-14T05:28:41;53163.13;;;-144.69;57.45
56658;BME280;42530;52.240;19.354;2022-08-14T05:31:13;53117.38;;;-144.69;57.08
56658;BME280;42530;52.240;19.354;2022-08-14T05:33:43;53140.25;;;-144.69;56.57
56658;BME280;42530;52.240;19.354;2022-08-14T05:36:10;53146.50;;;-144.69;56.54
56658;BME280;42530;52.240;19.354;2022-08-14T05:38:42;53144.41;;;-144.69;56.03
56658;BME280;42530;52.240;19.354;2022-08-14T05:41:17;53131.94;;;-144.69;56.02
56658;BME280;42530;52.240;19.354;2022-08-14T05:43:44;53121.53;;;-144.69;55.66
56658;BME280;42530;52.240;19.354;2022-08-14T05:46:12;53150.66;;;-144.69;55.46
56658;BME280;42530;52.240;19.354;2022-08-14T05:48:39;53127.78;;;-144.69;55.36
56658;BME280;42530;52.240;19.354;2022-08-14T05:51:05;53144.41;;;-144.69;55.18
56658;BME280;42530;52.240;19.354;2022-08-14T05:53:31;53148.56;;;-144.69;55.10
56658;BME280;42530;52.240;19.354;2022-08-14T05:55:57;53144.41;;;-144.69;55.05
56658;BME280;42530;52.240;19.354;2022-08-14T05:58:24;53144.41;;;-144.69;55.04
56658;BME280;42530;52.240;19.354;2022-08-14T06:00:49;53163.13;;;-144.69;55.28
56658;BME280;42530;52.240;19.354;2022-08-14T06:03:20;53152.75;;;-144.69;55.26
56658;BME280;42530;52.240;19.354;2022-08-14T06:05:48;53148.56;;;-144.69;55.35
56658;BME280;42530;52.240;19.354;2022-08-14T06:08:18;53123.63;;;-144.69;55.80
56658;BME280;42530;52.240;19.354;2022-08-14T06:10:44;53156.91;;;-144.69;55.54
56658;BME280;42530;52.240;19.354;2022-08-14T06:13:10;53125.69;;;-144.69;56.05
56658;BME280;42530;52.240;19.354;2022-08-14T06:15:36;53165.22;;;-144.69;55.88
56658;BME280;42530;52.240;19.354;2022-08-14T06:18:02;53140.25;;;-144.69;55.87
56658;BME280;42530;52.240;19.354;2022-08-14T06:20:28;53161.06;;;-144.69;55.38
56658;BME280;42530;52.240;19.354;2022-08-14T06:22:54;53123.63;;;-144.69;55.18
56658;BME280;42530;52.240;19.354;2022-08-14T06:25:20;53148.56;;;-144.69;54.88
56658;BME280;42530;52.240;19.354;2022-08-14T06:27:47;53127.78;;;-144.69;54.54
56658;BME280;42530;52.240;19.354;2022-08-14T06:30:18;53161.06;;;-144.69;54.16
56658;BME280;42530;52.240;19.354;2022-08-14T06:32:44;53148.56;;;-144.69;53.19
56658;BME280;42530;52.240;19.354;2022-08-14T06:35:11;53152.75;;;-144.69;52.75
56658;BME280;42530;52.240;19.354;2022-08-14T06:37:46;53152.75;;;-144.69;52.32
56658;BME280;42530;52.240;19.354;2022-08-14T06:40:18;53138.19;;;-144.69;52.53
56658;BME280;42530;52.240;19.354;2022-08-14T06:42:44;53144.41;;;-144.69;51.97
56658;BME280;42530;52.240;19.354;2022-08-14T06:45:10;53148.56;;;-144.69;51.69
56658;BME280;42530;52.240;19.354;2022-08-14T06:47:37;53129.84;;;-144.69;51.44
56658;BME280;42530;52.240;19.354;2022-08-14T06:50:04;53123.63;;;-144.69;51.92
56658;BME280;42530;52.240;19.354;2022-08-14T06:52:30;53165.22;;;-144.69;52.62
56658;BME280;42530;52.240;19.354;2022-08-14T06:54:56;53109.06;;;-144.69;53.02
56658;BME280;42530;52.240;19.354;2022-08-14T06:57:23;53165.22;;;-144.69;52.69
56658;BME280;42530;52.240;19.354;2022-08-14T06:59:48;53163.13;;;-144.69;52.03
56658;BME280;42530;52.240;19.354;2022-08-14T07:02:15;53161.06;;;-144.69;50.99
56658;BME280;42530;52.240;19.354;2022-08-14T07:04:59;53165.22;;;-144.69;49.69
56658;BME280;42530;52.240;19.354;2022-08-14T07:07:43;53173.53;;;-144.69;48.36
56658;BME280;42530;52.240;19.354;2022-08-14T07:10:09;53134.00;;;-144.69;48.11
56658;BME280;42530;52.240;19.354;2022-08-14T07:12:35;53173.53;;;-144.69;47.88
56658;BME280;42530;52.240;19.354;2022-08-14T07:15:00;53177.72;;;-144.69;48.19
56658;BME280;42530;52.240;19.354;2022-08-14T07:17:26;53192.28;;;-144.69;47.93
56658;BME280;42530;52.240;19.354;2022-08-14T07:19:52;53175.63;;;-144.69;47.88
56658;BME280;42530;52.240;19.354;2022-08-14T07:22:17;53183.94;;;-144.69;47.73
56658;BME280;42530;52.240;19.354;2022-08-14T07:24:43;53186.03;;;-144.69;47.61
56658;BME280;42530;52.240;19.354;2022-08-14T07:27:08;53173.53;;;-144.69;47.65
56658;BME280;42530;52.240;19.354;2022-08-14T07:29:34;53198.50;;;-144.69;47.22
56658;BME280;42530;52.240;19.354;2022-08-14T07:31:59;53163.13;;;-144.69;47.19
56658;BME280;42530;52.240;19.354;2022-08-14T07:34:24;53165.22;;;-144.69;47.19
56658;BME280;42530;52.240;19.354;2022-08-14T07:36:50;53196.44;;;-144.69;47.20
56658;BME280;42530;52.240;19.354;2022-08-14T07:39:17;53215.16;;;-144.69;47.39
56658;BME280;42530;52.240;19.354;2022-08-14T07:41:42;53208.91;;;-144.69;47.33
56658;BME280;42530;52.240;19.354;2022-08-14T07:44:09;53181.88;;;-144.69;46.84
56658;BME280;42530;52.240;19.354;2022-08-14T07:46:38;53190.19;;;-144.69;47.47
56658;BME280;42530;52.240;19.354;2022-08-14T07:49:04;53161.06;;;-144.69;47.35
56658;BME280;42530;52.240;19.354;2022-08-14T07:51:31;53219.31;;;-144.69;47.49
56658;BME280;42530;52.240;19.354;2022-08-14T07:53:56;53190.19;;;-144.69;47.54
56658;BME280;42530;52.240;19.354;2022-08-14T07:56:22;53227.63;;;-144.69;47.03
56658;BME280;42530;52.240;19.354;2022-08-14T07:58:48;53194.34;;;-144.69;46.49
56658;BME280;42530;52.240;19.354;2022-08-14T08:01:14;53169.38;;;-144.69;46.58
56658;BME280;42530;52.240;19.354;2022-08-14T08:03:41;53183.94;;;-144.69;46.68
56658;BME280;42530;52.240;19.354;2022-08-14T08:06:10;53223.47;;;-144.69;46.67
56658;BME280;42530;52.240;19.354;2022-08-14T08:08:35;53225.56;;;-144.69;46.26
56658;BME280;42530;52.240;19.354;2022-08-14T08:11:01;53181.88;;;-144.69;45.72
56658;BME280;42530;52.240;19.354;2022-08-14T08:13:27;53213.06;;;-144.69;45.50
56658;BME280;42530;52.240;19.354;2022-08-14T08:15:56;53204.75;;;-144.69;45.12
56658;BME280;42530;52.240;19.354;2022-08-14T08:18:23;53188.09;;;-144.69;44.16
56658;BME280;42530;52.240;19.354;2022-08-14T08:20:51;53177.72;;;-144.69;43.76
56658;BME280;42530;52.240;19.354;2022-08-14T08:23:18;53186.03;;;-144.69;42.33
56658;BME280;42530;52.240;19.354;2022-08-14T08:25:46;53206.84;;;-144.69;42.41
56658;BME280;42530;52.240;19.354;2022-08-14T08:28:21;53198.50;;;-144.69;43.01
56658;BME280;42530;52.240;19.354;2022-08-14T08:30:58;53125.69;;;-144.69;42.43
56658;BME280;42530;52.240;19.354;2022-08-14T08:33:26;53113.22;;;-144.69;41.56
56658;BME280;42530;52.240;19.354;2022-08-14T08:36:13;53119.44;;;-144.69;42.49
56658;BME280;42530;52.240;19.354;2022-08-14T08:38:38;53082.00;;;-144.69;43.70
56658;BME280;42530;52.240;19.354;2022-08-14T08:41:04;53125.69;;;-144.69;44.48
56658;BME280;42530;52.240;19.354;2022-08-14T08:43:32;53092.41;;;-144.69;44.63
56658;BME280;42530;52.240;19.354;2022-08-14T08:45:59;53138.19;;;-144.69;46.03
56658;BME280;42530;52.240;19.354;2022-08-14T08:48:28;53119.44;;;-144.69;47.01
56658;BME280;42530;52.240;19.354;2022-08-14T08:50:58;53102.81;;;-144.69;47.47
56658;BME280;42530;52.240;19.354;2022-08-14T08:53:32;53142.34;;;-144.69;47.78
56658;BME280;42530;52.240;19.354;2022-08-14T08:55:58;53125.69;;;-144.69;48.13
56658;BME280;42530;52.240;19.354;2022-08-14T08:58:23;53098.66;;;-144.69;48.46
56658;BME280;42530;52.240;19.354;2022-08-14T09:00:51;53129.84;;;-144.69;48.79
56658;BME280;42530;52.240;19.354;2022-08-14T09:03:20;53106.97;;;-144.69;48.92
56658;BME280;42530;52.240;19.354;2022-08-14T09:06:00;53121.53;;;-144.69;49.50
56658;BME280;42530;52.240;19.354;2022-08-14T09:08:32;53111.13;;;-144.69;49.70
56658;BME280;42530;52.240;19.354;2022-08-14T09:11:05;53121.53;;;-144.69;50.43
56658;BME280;42530;52.240;19.354;2022-08-14T09:13:34;53109.06;;;-144.69;50.61
56658;BME280;42530;52.240;19.354;2022-08-14T09:16:00;53134.00;;;-144.69;50.73
56658;BME280;42530;52.240;19.354;2022-08-14T09:18:26;53102.81;;;-144.69;51.41
56658;BME280;42530;52.240;19.354;2022-08-14T09:20:55;53115.28;;;-144.69;51.99
56658;BME280;42530;52.240;19.354;2022-08-14T09:23:21;53125.69;;;-144.69;52.38
56658;BME280;42530;52.240;19.354;2022-08-14T09:25:49;53119.44;;;-144.69;51.95
56658;BME280;42530;52.240;19.354;2022-08-14T09:28:16;53131.94;;;-144.69;51.97
56658;BME280;42530;52.240;19.354;2022-08-14T09:30:51;53150.66;;;-144.69;51.68
56658;BME280;42530;52.240;19.354;2022-08-14T09:35:59;53144.41;;;-144.69;52.15
56658;BME280;42530;52.240;19.354;2022-08-14T09:38:46;53100.72;;;-144.69;52.28
56658;BME280;42530;52.240;19.354;2022-08-14T09:41:46;53088.25;;;-144.69;52.43
56658;BME280;42530;52.240;19.354;2022-08-14T09:47:01;53115.28;;;-144.69;52.83
56658;BME280;42530;52.240;19.354;2022-08-14T09:49:45;53131.94;;;-144.69;52.26
56658;BME280;42530;52.240;19.354;2022-08-14T09:52:13;53109.06;;;-144.69;52.34
56658;BME280;42530;52.240;19.354;2022-08-14T09:54:45;53144.41;;;-144.69;52.70
56658;BME280;42530;52.240;19.354;2022-08-14T09:57:23;53113.22;;;-144.69;53.13
56658;BME280;42530;52.240;19.354;2022-08-14T09:59:50;53136.09;;;-144.69;52.88
56658;BME280;42530;52.240;19.354;2022-08-14T10:02:24;53152.75;;;-144.69;52.76
56658;BME280;42530;52.240;19.354;2022-08-14T10:05:05;53123.63;;;-144.69;52.04
56658;BME280;42530;52.240;19.354;2022-08-14T10:07:34;53140.25;;;-144.69;50.93
56658;BME280;42530;52.240;19.354;2022-08-14T10:10:01;53129.84;;;-144.69;50.09
56658;BME280;42530;52.240;19.354;2022-08-14T10:15:20;53127.78;;;-144.69;46.74
56658;BME280;42530;52.240;19.354;2022-08-14T10:17:48;53146.50;;;-144.69;45.23
56658;BME280;42530;52.240;19.354;2022-08-14T10:20:16;53177.72;;;-144.69;42.66
56658;BME280;42530;52.240;19.354;2022-08-14T10:22:47;53181.88;;;-144.69;40.82
56658;BME280;42530;52.240;19.354;2022-08-14T10:25:15;53138.19;;;-144.69;40.83
56658;BME280;42530;52.240;19.354;2022-08-14T10:27:42;53119.44;;;-144.69;42.58
56658;BME280;42530;52.240;19.354;2022-08-14T10:30:17;53138.19;;;-144.69;42.88
56658;BME280;42530;52.240;19.354;2022-08-14T10:32:47;53127.78;;;-144.69;42.95
56658;BME280;42530;52.240;19.354;2022-08-14T10:35:14;53121.53;;;-144.69;43.83
56658;BME280;42530;52.240;19.354;2022-08-14T10:37:48;53123.63;;;-144.69;44.40
56658;BME280;42530;52.240;19.354;2022-08-14T10:40:35;53175.63;;;-144.69;42.69
56658;BME280;42530;52.240;19.354;2022-08-14T10:43:00;53198.50;;;-144.69;40.18
56658;BME280;42530;52.240;19.354;2022-08-14T10:45:32;53115.28;;;-144.69;38.15
56658;BME280;42530;52.240;19.354;2022-08-14T10:47:59;53215.16;;;-144.69;37.04
56658;BME280;42530;52.240;19.354;2022-08-14T10:50:34;53235.97;;;-144.69;36.24
56658;BME280;42530;52.240;19.354;2022-08-14T10:53:00;53094.47;;;-144.69;37.48
56658;BME280;42530;52.240;19.354;2022-08-14T10:55:35;53088.25;;;-144.69;39.25
56658;BME280;42530;52.240;19.354;2022-08-14T10:58:05;53109.06;;;-144.69;41.15
56658;BME280;42530;52.240;19.354;2022-08-14T11:00:35;53140.25;;;-144.69;42.12
56658;BME280;42530;52.240;19.354;2022-08-14T11:03:03;53082.00;;;-144.69;41.50
56658;BME280;42530;52.240;19.354;2022-08-14T11:05:42;53202.66;;;-144.69;41.50
56658;BME280;42530;52.240;19.354;2022-08-14T11:08:08;53131.94;;;-144.69;39.73
56658;BME280;42530;52.240;19.354;2022-08-14T11:10:58;53213.06;;;-144.69;39.30
56658;BME280;42530;52.240;19.354;2022-08-14T11:13:28;53186.03;;;-144.69;38.07
56658;BME280;42530;52.240;19.354;2022-08-14T11:15:57;53208.91;;;-144.69;38.01
56658;BME280;42530;52.240;19.354;2022-08-14T11:18:25;53088.25;;;-144.69;38.92
56658;BME280;42530;52.240;19.354;2022-08-14T11:20:54;53127.78;;;-144.69;40.09
56658;BME280;42530;52.240;19.354;2022-08-14T11:23:21;53077.84;;;-144.69;40.99
56658;BME280;42530;52.240;19.354;2022-08-14T11:25:50;53096.56;;;-144.69;41.66
56658;BME280;42530;52.240;19.354;2022-08-14T11:28:21;53098.66;;;-144.69;41.43
56658;BME280;42530;52.240;19.354;2022-08-14T11:30:48;53117.38;;;-144.69;40.59
56658;BME280;42530;52.240;19.354;2022-08-14T11:33:14;53148.56;;;-144.69;37.87
56658;BME280;42530;52.240;19.354;2022-08-14T11:35:40;53177.72;;;-144.69;38.88
56658;BME280;42530;52.240;19.354;2022-08-14T11:38:08;53169.38;;;-144.69;36.36
56658;BME280;42530;52.240;19.354;2022-08-14T11:40:38;53121.53;;;-144.69;34.92
56658;BME280;42530;52.240;19.354;2022-08-14T11:43:06;53094.47;;;-144.69;36.65
56658;BME280;42530;52.240;19.354;2022-08-14T11:45:38;53186.03;;;-144.69;35.48
56658;BME280;42530;52.240;19.354;2022-08-14T11:48:24;53079.91;;;-144.69;36.39
56658;BME280;42530;52.240;19.354;2022-08-14T11:50:51;53200.59;;;-144.69;37.08
56658;BME280;42530;52.240;19.354;2022-08-14T11:55:59;53161.06;;;-144.69;34.29
56658;BME280;42530;52.240;19.354;2022-08-14T11:58:28;53094.47;;;-144.69;34.19
56658;BME280;42530;52.240;19.354;2022-08-14T12:00:57;53163.13;;;-144.69;35.16
56658;BME280;42530;52.240;19.354;2022-08-14T12:03:45;53059.13;;;-144.69;35.47
56658;BME280;42530;52.240;19.354;2022-08-14T12:06:20;53082.00;;;-144.69;35.59
56658;BME280;42530;52.240;19.354;2022-08-14T12:08:45;53121.53;;;-144.69;36.18
56658;BME280;42530;52.240;19.354;2022-08-14T12:11:12;53088.25;;;-144.69;35.37
56658;BME280;42530;52.240;19.354;2022-08-14T12:13:40;53167.31;;;-144.69;35.09
56658;BME280;42530;52.240;19.354;2022-08-14T12:16:08;53179.78;;;-144.69;34.29
56658;BME280;42530;52.240;19.354;2022-08-14T12:18:38;53165.22;;;-144.69;34.32
56658;BME280;42530;52.240;19.354;2022-08-14T12:21:17;53138.19;;;-144.69;31.89
56658;BME280;42530;52.240;19.354;2022-08-14T12:23:45;53125.69;;;-144.69;33.56
56658;BME280;42530;52.240;19.354;2022-08-14T12:26:15;53152.75;;;-144.69;33.39
56658;BME280;42530;52.240;19.354;2022-08-14T12:28:50;53134.00;;;-144.69;32.28
56658;BME280;42530;52.240;19.354;2022-08-14T12:31:18;53106.97;;;-144.69;31.57
56658;BME280;42530;52.240;19.354;2022-08-14T12:34:04;53140.25;;;-144.69;31.52
56658;BME280;42530;52.240;19.354;2022-08-14T12:36:30;53129.84;;;-144.69;30.44
56658;BME280;42530;52.240;19.354;2022-08-14T12:39:00;53117.38;;;-144.69;31.01
56658;BME280;42530;52.240;19.354;2022-08-14T12:41:28;53169.38;;;-144.69;30.71
56658;BME280;42530;52.240;19.354;2022-08-14T12:44:04;53154.81;;;-144.69;32.32
56658;BME280;42530;52.240;19.354;2022-08-14T12:46:31;53156.91;;;-144.69;32.76
56658;BME280;42530;52.240;19.354;2022-08-14T12:49:08;53104.88;;;-144.69;32.54